Time;durP1;ratioP1;P1;durP2;ratioP2;P2;SDS_P1;SDS_P2;PMS_P1;PMS_P2;Temp;Humidity;BMP_temperature;BMP_pressure;BME280_temperature;BME280_humidity;BME280_pressure;Samples;Min_cycle;Max_cycle;Signal;HPM_P1;HPM_P2
2021/09/17 00:01:25;0.00;0.00;0.62;0.00;0.00;0.62;4.43;1.53;;;26.30;38.50;;;;;;2245062;61;20592;-63
2021/09/17 00:04:09;0.00;0.00;0.62;0.00;0.00;0.62;1.80;1.30;;;26.20;38.50;;;;;;2245594;61;20406;-66
2021/09/17 00:06:54;0.00;0.00;0.62;0.00;0.00;0.62;1.60;1.30;;;26.20;38.50;;;;;;2245724;61;20365;-64
2021/09/17 00:09:40;0.00;0.00;0.62;0.00;0.00;0.62;1.53;1.27;;;26.20;38.50;;;;;;2245606;61;20592;-65
2021/09/17 00:12:25;0.00;0.00;0.62;0.00;0.00;0.62;2.17;1.60;;;26.20;38.50;;;;;;2245597;61;20714;-62
2021/09/17 00:15:11;0.00;0.00;0.62;0.00;0.00;0.62;2.23;1.50;;;26.20;38.50;;;;;;2245211;61;20405;-65
2021/09/17 00:17:56;0.00;0.00;0.62;0.00;0.00;0.62;1.93;1.40;;;26.20;38.50;;;;;;2245821;61;20358;-64
2021/09/17 00:20:41;0.00;0.00;0.62;0.00;0.00;0.62;2.10;1.33;;;26.20;38.50;;;;;;2245677;61;20361;-63
2021/09/17 00:23:26;0.00;0.00;0.62;0.00;0.00;0.62;2.13;1.50;;;26.20;38.50;;;;;;2244916;61;20370;-63
2021/09/17 00:26:12;0.00;0.00;0.62;0.00;0.00;0.62;1.73;1.23;;;26.20;38.50;;;;;;2245891;61;20382;-67
2021/09/17 00:28:56;0.00;0.00;0.62;0.00;0.00;0.62;1.73;1.50;;;26.20;38.50;;;;;;2245969;61;20413;-65
2021/09/17 00:31:41;0.00;0.00;0.62;0.00;0.00;0.62;1.93;1.47;;;26.20;38.50;;;;;;2245518;61;20369;-66
2021/09/17 00:34:25;0.00;0.00;0.62;0.00;0.00;0.62;2.60;1.60;;;26.20;38.60;;;;;;2245452;61;20386;-67
2021/09/17 00:37:10;0.00;0.00;0.62;0.00;0.00;0.62;2.20;1.70;;;26.20;38.60;;;;;;2245275;61;20438;-61
2021/09/17 00:39:54;0.00;0.00;0.62;0.00;0.00;0.62;4.40;1.60;;;26.20;38.60;;;;;;2245633;61;20418;-65
2021/09/17 00:42:40;0.00;0.00;0.62;0.00;0.00;0.62;2.13;1.60;;;26.20;38.60;;;;;;2245662;61;20361;-65
2021/09/17 00:45:25;0.00;0.00;0.62;0.00;0.00;0.62;1.67;1.20;;;26.20;38.70;;;;;;2244920;61;20389;-65
2021/09/17 00:48:10;0.00;0.00;0.62;0.00;0.00;0.62;2.00;1.30;;;26.20;38.70;;;;;;2245692;61;20385;-64
2021/09/17 00:50:55;0.00;0.00;0.62;0.00;0.00;0.62;2.30;1.40;;;26.20;38.70;;;;;;2245941;61;20382;-66
2021/09/17 00:53:39;0.00;0.00;0.62;0.00;0.00;0.62;2.27;1.77;;;26.20;38.70;;;;;;2245174;61;20361;-63
2021/09/17 00:56:24;0.00;0.00;0.62;0.00;0.00;0.62;2.30;1.70;;;26.20;38.80;;;;;;2245227;61;20433;-63
2021/09/17 00:59:10;0.00;0.00;0.62;0.00;0.00;0.62;1.80;1.50;;;26.20;38.80;;;;;;2245263;61;20395;-64
2021/09/17 01:01:55;0.00;0.00;0.62;0.00;0.00;0.62;1.83;1.50;;;26.20;38.80;;;;;;2245444;61;20417;-63
2021/09/17 01:04:40;0.00;0.00;0.62;0.00;0.00;0.62;2.57;1.70;;;26.20;38.80;;;;;;2245433;61;20413;-64
2021/09/17 01:07:25;0.00;0.00;0.62;0.00;0.00;0.62;2.07;1.70;;;26.20;38.80;;;;;;2245088;61;20374;-66
2021/09/17 01:10:10;0.00;0.00;0.62;0.00;0.00;0.62;1.73;1.30;;;26.20;38.80;;;;;;2245711;61;20361;-66
2021/09/17 01:12:55;0.00;0.00;0.62;0.00;0.00;0.62;1.87;1.40;;;26.20;38.80;;;;;;2245625;61;20834;-65
2021/09/17 01:15:41;0.00;0.00;0.62;0.00;0.00;0.62;2.10;1.57;;;26.20;38.80;;;;;;2244762;61;20652;-65
2021/09/17 01:18:29;0.00;0.00;0.62;0.00;0.00;0.62;5.00;2.23;;;26.20;38.90;;;;;;2245537;61;20701;-65
2021/09/17 01:21:15;0.00;0.00;0.62;0.00;0.00;0.62;2.27;1.83;;;26.20;38.80;;;;;;2245305;61;20405;-63
2021/09/17 01:23:59;0.00;0.00;0.62;0.00;0.00;0.62;2.00;1.50;;;26.20;38.90;;;;;;2246012;61;20482;-66
2021/09/17 01:26:44;0.00;0.00;0.62;0.00;0.00;0.62;2.03;1.80;;;26.20;38.80;;;;;;2246189;61;20491;-60
2021/09/17 01:29:28;0.00;0.00;0.62;0.00;0.00;0.62;2.13;1.70;;;26.20;38.80;;;;;;2245640;61;20493;-66
2021/09/17 01:32:13;0.00;0.00;0.62;0.00;0.00;0.62;2.63;1.50;;;26.10;38.70;;;;;;2246429;61;20361;-66
2021/09/17 01:34:57;0.00;0.00;0.62;0.00;0.00;0.62;1.90;1.70;;;26.20;38.80;;;;;;2246177;61;20497;-64
2021/09/17 01:37:44;0.00;0.00;0.62;0.00;0.00;0.62;2.70;1.90;;;26.20;38.80;;;;;;2245521;61;20360;-66
2021/09/17 01:40:29;0.00;0.00;0.62;0.00;0.00;0.62;3.30;2.07;;;26.20;38.80;;;;;;2246306;61;20684;-63
2021/09/17 01:43:14;0.00;0.00;0.62;0.00;0.00;0.62;2.00;1.73;;;26.10;38.70;;;;;;2245793;61;20478;-65
2021/09/17 01:45:58;0.00;0.00;0.62;0.00;0.00;0.62;1.97;1.77;;;26.10;38.70;;;;;;2478690;53;20589;-62
2021/09/17 01:48:43;0.00;0.00;0.62;0.00;0.00;0.62;2.13;1.73;;;26.10;38.70;;;;;;2246173;61;20417;-65
2021/09/17 01:51:28;0.00;0.00;0.62;0.00;0.00;0.62;1.90;1.40;;;26.10;38.70;;;;;;2245554;61;20406;-64
2021/09/17 01:54:13;0.00;0.00;0.62;0.00;0.00;0.62;1.80;1.50;;;26.10;38.70;;;;;;2246143;61;20361;-66
2021/09/17 01:56:58;0.00;0.00;0.62;0.00;0.00;0.62;2.50;1.80;;;26.10;38.70;;;;;;2246213;61;20583;-66
2021/09/17 01:59:43;0.00;0.00;0.62;0.00;0.00;0.62;2.37;1.90;;;26.10;39.40;;;;;;2245544;61;20392;-64
2021/09/17 02:02:27;0.00;0.00;0.62;0.00;0.00;0.62;2.13;1.60;;;26.10;38.70;;;;;;2246223;61;20369;-64
2021/09/17 02:05:12;0.00;0.00;0.62;0.00;0.00;0.62;3.30;1.97;;;26.10;38.70;;;;;;2246234;61;20381;-65
2021/09/17 02:07:57;0.00;0.00;0.62;0.00;0.00;0.62;2.10;1.70;;;26.10;38.80;;;;;;2245979;61;20373;-64
2021/09/17 02:10:44;0.00;0.00;0.62;0.00;0.00;0.62;2.13;1.70;;;26.10;38.70;;;;;;2246134;61;20358;-62
2021/09/17 02:13:28;0.00;0.00;0.62;0.00;0.00;0.62;1.63;1.50;;;26.10;38.70;;;;;;2245491;61;20362;-63
2021/09/17 02:16:13;0.00;0.00;0.62;0.00;0.00;0.62;2.87;1.80;;;26.10;38.70;;;;;;2246143;61;20812;-61
2021/09/17 02:18:58;0.00;0.00;0.62;0.00;0.00;0.62;2.63;1.87;;;26.00;38.60;;;;;;2245974;61;20370;-65
2021/09/17 02:21:48;0.00;0.00;0.62;0.00;0.00;0.62;2.30;1.90;;;26.10;38.70;;;;;;2245433;61;20361;-63
2021/09/17 02:24:32;0.00;0.00;0.62;0.00;0.00;0.62;2.13;1.60;;;26.00;38.60;;;;;;2245953;61;20385;-65
2021/09/17 02:27:19;0.00;0.00;0.62;0.00;0.00;0.62;2.50;1.60;;;26.00;38.70;;;;;;2245757;61;20426;-64
2021/09/17 02:30:07;0.00;0.00;0.62;0.00;0.00;0.62;1.97;1.60;;;26.00;39.40;;;;;;2245904;61;20378;-62
2021/09/17 02:32:51;0.00;0.00;0.62;0.00;0.00;0.62;2.57;1.83;;;26.00;38.70;;;;;;2245608;61;20383;-63
2021/09/17 02:35:36;0.00;0.00;0.62;0.00;0.00;0.62;2.73;1.83;;;26.10;38.80;;;;;;2245647;61;20400;-63
2021/09/17 02:38:22;0.00;0.00;0.62;0.00;0.00;0.62;5.50;2.80;;;26.00;38.60;;;;;;2246117;61;20365;-63
2021/09/17 02:41:07;0.00;0.00;0.62;0.00;0.00;0.62;4.60;3.67;;;26.00;38.30;;;;;;2245992;61;20776;-63
2021/09/17 02:43:53;0.00;0.00;0.62;0.00;0.00;0.62;5.50;3.70;;;26.00;38.00;;;;;;2245226;61;20358;-61
2021/09/17 02:46:38;0.00;0.00;0.62;0.00;0.00;0.62;4.33;3.13;;;25.90;37.80;;;;;;2246296;61;20478;-63
2021/09/17 02:49:22;0.00;0.00;0.62;0.00;0.00;0.62;4.50;3.77;;;25.80;37.70;;;;;;2246086;61;20389;-62
2021/09/17 02:52:08;0.00;0.00;0.62;0.00;0.00;0.62;6.17;3.73;;;25.80;37.80;;;;;;2245539;61;20361;-63
2021/09/17 02:54:53;0.00;0.00;0.62;0.00;0.00;0.62;3.97;3.57;;;25.70;37.70;;;;;;2245768;61;20384;-63
2021/09/17 02:57:38;0.00;0.00;0.62;0.00;0.00;0.62;4.00;3.53;;;25.50;37.80;;;;;;2245561;61;20409;-61
2021/09/17 03:00:25;0.00;0.00;0.62;0.00;0.00;0.62;5.20;4.00;;;25.40;37.90;;;;;;2246041;61;20398;-62
2021/09/17 03:03:10;0.00;0.00;0.62;0.00;0.00;0.62;4.53;4.13;;;25.40;38.10;;;;;;2245787;61;20369;-62
2021/09/17 03:05:54;0.00;0.00;0.62;0.00;0.00;0.62;6.17;4.10;;;25.20;38.00;;;;;;2245245;61;20756;-63
2021/09/17 03:08:38;0.00;0.00;0.62;0.00;0.00;0.62;3.40;3.07;;;25.20;38.10;;;;;;2246051;61;20392;-64
2021/09/17 03:11:23;0.00;0.00;0.62;0.00;0.00;0.62;3.90;2.73;;;25.10;38.30;;;;;;2246071;61;20365;-63
2021/09/17 03:14:08;0.00;0.00;0.62;0.00;0.00;0.62;3.50;2.23;;;25.00;38.50;;;;;;2245259;61;20380;-63
2021/09/17 03:16:54;0.00;0.00;0.62;0.00;0.00;0.62;3.30;2.60;;;25.00;38.70;;;;;;2245766;61;20368;-64
2021/09/17 03:19:38;0.00;0.00;0.62;0.00;0.00;0.62;3.70;2.10;;;25.00;38.90;;;;;;2245551;61;20576;-63
2021/09/17 03:22:23;0.00;0.00;0.62;0.00;0.00;0.62;4.33;2.40;;;25.00;39.00;;;;;;2245872;61;20487;-62
2021/09/17 03:25:09;0.00;0.00;0.62;0.00;0.00;0.62;5.27;4.00;;;25.00;39.00;;;;;;2245586;61;20385;-64
2021/09/17 03:27:54;0.00;0.00;0.62;0.00;0.00;0.62;6.67;4.07;;;25.00;39.00;;;;;;2245456;61;20406;-63
2021/09/17 03:30:38;0.00;0.00;0.62;0.00;0.00;0.62;4.07;3.30;;;25.00;39.00;;;;;;2245947;61;20357;-62
2021/09/17 03:33:24;0.00;0.00;0.62;0.00;0.00;0.62;3.50;3.20;;;24.90;38.80;;;;;;2245810;61;20713;-64
2021/09/17 03:36:09;0.00;0.00;0.62;0.00;0.00;0.62;2.97;2.30;;;24.90;38.80;;;;;;2245298;61;20408;-66
2021/09/17 03:38:53;0.00;0.00;0.62;0.00;0.00;0.62;2.77;2.37;;;24.90;39.00;;;;;;2245686;61;20354;-65
2021/09/17 03:41:39;0.00;0.00;0.62;0.00;0.00;0.62;3.43;2.50;;;24.90;39.10;;;;;;2245645;61;20602;-65
2021/09/17 03:44:23;0.00;0.00;0.62;0.00;0.00;0.62;3.03;2.20;;;24.90;39.10;;;;;;2245500;61;20661;-63
2021/09/17 03:47:08;0.00;0.00;0.62;0.00;0.00;0.62;3.00;2.00;;;24.90;39.10;;;;;;2245799;61;20593;-64
2021/09/17 03:49:53;0.00;0.00;0.62;0.00;0.00;0.62;4.70;2.80;;;24.90;39.20;;;;;;2245376;61;20395;-64
2021/09/17 03:52:40;0.00;0.00;0.62;0.00;0.00;0.62;4.00;2.40;;;25.00;39.30;;;;;;2245693;61;20717;-64
2021/09/17 03:55:25;0.00;0.00;0.62;0.00;0.00;0.62;2.50;2.07;;;25.00;39.30;;;;;;2245984;61;20377;-65
2021/09/17 03:58:12;0.00;0.00;0.62;0.00;0.00;0.62;2.87;2.53;;;25.00;39.30;;;;;;2245291;61;20409;-67
2021/09/17 04:00:56;0.00;0.00;0.62;0.00;0.00;0.62;4.33;2.50;;;25.00;39.30;;;;;;2245670;61;20406;-64
2021/09/17 04:03:40;0.00;0.00;0.62;0.00;0.00;0.62;2.87;2.10;;;25.00;39.30;;;;;;2245783;61;20365;-66
2021/09/17 04:06:26;0.00;0.00;0.62;0.00;0.00;0.62;3.20;2.23;;;25.10;39.30;;;;;;2245581;61;20691;-65
2021/09/17 04:09:12;0.00;0.00;0.62;0.00;0.00;0.62;4.03;2.23;;;25.10;39.30;;;;;;2245699;61;20393;-66
2021/09/17 04:11:57;0.00;0.00;0.62;0.00;0.00;0.62;2.80;2.23;;;25.10;39.30;;;;;;2245231;61;20365;-64
2021/09/17 04:14:41;0.00;0.00;0.62;0.00;0.00;0.62;4.90;2.50;;;25.10;39.30;;;;;;2245689;61;20438;-65
2021/09/17 04:17:25;0.00;0.00;0.62;0.00;0.00;0.62;2.30;1.93;;;25.10;39.30;;;;;;2245816;61;20413;-67
2021/09/17 04:20:11;0.00;0.00;0.62;0.00;0.00;0.62;2.33;1.80;;;25.10;39.30;;;;;;2245003;61;20364;-67
2021/09/17 04:22:57;0.00;0.00;0.62;0.00;0.00;0.62;2.13;1.93;;;25.20;39.30;;;;;;2245781;61;20577;-66
2021/09/17 04:25:42;0.00;0.00;0.62;0.00;0.00;0.62;2.83;1.90;;;25.20;39.30;;;;;;2245805;61;20762;-67
2021/09/17 04:28:27;0.00;0.00;0.62;0.00;0.00;0.62;1.90;1.70;;;25.20;39.30;;;;;;2245412;61;20473;-64
2021/09/17 04:31:11;0.00;0.00;0.62;0.00;0.00;0.62;2.73;2.50;;;25.20;39.30;;;;;;2245702;61;20381;-64
2021/09/17 04:33:56;0.00;0.00;0.62;0.00;0.00;0.62;3.33;1.63;;;25.20;39.20;;;;;;2245136;61;20584;-65
2021/09/17 04:36:41;0.00;0.00;0.62;0.00;0.00;0.62;2.53;2.10;;;25.20;39.20;;;;;;2245700;61;20635;-67
2021/09/17 04:39:26;0.00;0.00;0.62;0.00;0.00;0.62;2.30;2.10;;;25.20;39.20;;;;;;2245618;61;20354;-64
2021/09/17 04:42:11;0.00;0.00;0.62;0.00;0.00;0.62;2.80;1.97;;;25.20;39.20;;;;;;2245011;61;20449;-65
2021/09/17 04:44:55;0.00;0.00;0.62;0.00;0.00;0.62;2.13;1.60;;;25.30;39.30;;;;;;2245673;61;20397;-64
2021/09/17 04:47:40;0.00;0.00;0.62;0.00;0.00;0.62;2.70;2.03;;;25.30;39.30;;;;;;2245915;61;20436;-64
2021/09/17 04:50:25;0.00;0.00;0.62;0.00;0.00;0.62;2.00;1.80;;;25.30;39.30;;;;;;2244998;61;20438;-65
2021/09/17 04:53:10;0.00;0.00;0.62;0.00;0.00;0.62;2.47;1.70;;;25.30;39.20;;;;;;2245438;61;20368;-65
2021/09/17 04:55:56;0.00;0.00;0.62;0.00;0.00;0.62;2.20;2.00;;;25.30;39.30;;;;;;2245154;61;20382;-66
2021/09/17 04:58:40;0.00;0.00;0.62;0.00;0.00;0.62;2.57;2.07;;;25.30;39.30;;;;;;2246497;61;20365;-66
2021/09/17 05:01:25;0.00;0.00;0.62;0.00;0.00;0.62;2.30;2.03;;;25.30;39.20;;;;;;2246239;61;20583;-66
2021/09/17 05:04:09;0.00;0.00;0.62;0.00;0.00;0.62;2.80;2.10;;;25.30;39.30;;;;;;2245723;61;20401;-64
2021/09/17 05:06:54;0.00;0.00;0.62;0.00;0.00;0.62;2.30;2.10;;;25.40;39.30;;;;;;2246517;61;20438;-64
2021/09/17 05:09:39;0.00;0.00;0.62;0.00;0.00;0.62;2.20;2.00;;;25.40;39.30;;;;;;2246474;61;20409;-65
2021/09/17 05:12:24;0.00;0.00;0.62;0.00;0.00;0.62;2.40;2.20;;;25.40;39.30;;;;;;2245646;61;20361;-64
2021/09/17 05:15:10;0.00;0.00;0.62;0.00;0.00;0.62;3.87;2.63;;;25.40;39.30;;;;;;2246076;61;20385;-64
2021/09/17 05:17:55;0.00;0.00;0.62;0.00;0.00;0.62;3.03;2.40;;;25.40;39.30;;;;;;2245994;61;20357;-67
2021/09/17 05:20:40;0.00;0.00;0.62;0.00;0.00;0.62;2.83;2.37;;;25.40;39.30;;;;;;2246245;61;20398;-64
2021/09/17 05:23:24;0.00;0.00;0.62;0.00;0.00;0.62;2.97;2.33;;;25.40;39.30;;;;;;2246225;61;20414;-63
2021/09/17 05:26:09;0.00;0.00;0.62;0.00;0.00;0.62;2.73;2.33;;;25.40;39.30;;;;;;2245687;61;20385;-64
2021/09/17 05:28:55;0.00;0.00;0.62;0.00;0.00;0.62;3.37;2.87;;;25.40;39.30;;;;;;2246144;61;20389;-64
2021/09/17 05:31:40;0.00;0.00;0.62;0.00;0.00;0.62;3.03;2.40;;;25.40;39.30;;;;;;2245872;61;20362;-63
2021/09/17 05:34:25;0.00;0.00;0.62;0.00;0.00;0.62;3.33;2.57;;;25.40;39.30;;;;;;2245312;61;20416;-62
2021/09/17 05:37:09;0.00;0.00;0.62;0.00;0.00;0.62;2.60;2.20;;;25.40;39.30;;;;;;2246372;61;20409;-64
2021/09/17 05:39:54;0.00;0.00;0.62;0.00;0.00;0.62;3.10;2.70;;;25.40;39.30;;;;;;2246346;61;20369;-62
2021/09/17 05:42:38;0.00;0.00;0.62;0.00;0.00;0.62;2.87;2.63;;;25.40;39.30;;;;;;2246261;61;20687;-64
2021/09/17 05:45:24;0.00;0.00;0.62;0.00;0.00;0.62;3.57;3.00;;;25.40;39.30;;;;;;2246376;61;20424;-62
2021/09/17 05:48:09;0.00;0.00;0.62;0.00;0.00;0.62;2.90;2.60;;;25.40;39.30;;;;;;2245748;61;20385;-62
2021/09/17 05:50:53;0.00;0.00;0.62;0.00;0.00;0.62;4.60;3.70;;;25.40;39.30;;;;;;2246292;61;20357;-61
2021/09/17 05:53:38;0.00;0.00;0.62;0.00;0.00;0.62;4.93;4.10;;;25.40;39.30;;;;;;2245964;61;20393;-64
2021/09/17 05:56:23;0.00;0.00;0.62;0.00;0.00;0.62;4.13;3.73;;;25.30;39.20;;;;;;2245519;61;20384;-64
2021/09/17 05:59:08;0.00;0.00;0.62;0.00;0.00;0.62;5.40;3.53;;;25.40;39.20;;;;;;2246709;61;20455;-63
2021/09/17 06:01:53;0.00;0.00;0.62;0.00;0.00;0.62;4.20;3.70;;;25.30;39.20;;;;;;2246310;61;20721;-62
2021/09/17 06:04:38;0.00;0.00;0.62;0.00;0.00;0.62;4.73;3.30;;;25.30;39.30;;;;;;2245887;61;20729;-65
2021/09/17 06:07:22;0.00;0.00;0.62;0.00;0.00;0.62;4.00;3.60;;;25.30;39.30;;;;;;2246279;61;20370;-65
2021/09/17 06:10:08;0.00;0.00;0.62;0.00;0.00;0.62;5.37;3.70;;;25.20;39.30;;;;;;2245833;61;20361;-64
2021/09/17 06:12:53;0.00;0.00;0.62;0.00;0.00;0.62;4.20;3.60;;;25.20;39.40;;;;;;2246135;61;20365;-65
2021/09/17 06:15:37;0.00;0.00;0.62;0.00;0.00;0.62;5.00;3.90;;;25.20;39.40;;;;;;2246223;61;20445;-63
2021/09/17 06:18:24;0.00;0.00;0.62;0.00;0.00;0.62;4.17;2.97;;;25.20;39.50;;;;;;2245432;61;20402;-65
2021/09/17 06:21:10;0.00;0.00;0.62;0.00;0.00;0.62;4.97;3.53;;;25.20;39.50;;;;;;2246372;61;20358;-63
2021/09/17 06:23:55;0.00;0.00;0.62;0.00;0.00;0.62;3.60;2.80;;;25.20;39.50;;;;;;2246172;61;20381;-63
2021/09/17 06:26:39;0.00;0.00;0.62;0.00;0.00;0.62;5.77;3.20;;;25.20;39.60;;;;;;2245568;61;20587;-65
2021/09/17 06:29:24;0.00;0.00;0.62;0.00;0.00;0.62;2.90;2.30;;;25.20;39.70;;;;;;2246246;61;20420;-62
2021/09/17 06:32:09;0.00;0.00;0.62;0.00;0.00;0.62;3.40;3.10;;;25.20;39.60;;;;;;2245616;61;20361;-64
2021/09/17 06:34:58;0.00;0.00;0.62;0.00;0.00;0.62;4.83;3.70;;;25.20;39.70;;;;;;2246102;61;20385;-63
2021/09/17 06:37:48;0.00;0.00;0.62;0.00;0.00;0.62;3.50;2.93;;;25.20;39.70;;;;;;2246214;61;20581;-64
2021/09/17 06:40:33;0.00;0.00;0.62;0.00;0.00;0.62;3.97;3.00;;;25.20;39.70;;;;;;2245579;61;20414;-63
2021/09/17 06:43:17;0.00;0.00;0.62;0.00;0.00;0.62;4.97;3.77;;;25.20;39.70;;;;;;2246254;61;20409;-62
2021/09/17 06:46:02;0.00;0.00;0.62;0.00;0.00;0.62;7.10;5.10;;;25.20;39.70;;;;;;2246120;61;20468;-64
2021/09/17 06:48:47;0.00;0.00;0.62;0.00;0.00;0.62;7.73;6.20;;;25.20;39.50;;;;;;2245488;61;20477;-64
2021/09/17 06:51:33;0.00;0.00;0.62;0.00;0.00;0.62;6.93;6.23;;;25.20;39.40;;;;;;2245710;61;20393;-66
2021/09/17 06:54:17;0.00;0.00;0.62;0.00;0.00;0.62;6.37;5.73;;;25.20;39.30;;;;;;2245037;61;20698;-66
2021/09/17 06:57:02;0.00;0.00;0.62;0.00;0.00;0.62;6.03;5.43;;;25.10;39.30;;;;;;2245585;61;20624;-66
2021/09/17 06:59:46;0.00;0.00;0.62;0.00;0.00;0.62;9.23;5.23;;;25.10;39.40;;;;;;2245377;61;20579;-66
2021/09/17 07:02:31;0.00;0.00;0.62;0.00;0.00;0.62;7.00;6.07;;;25.10;39.50;;;;;;2245171;61;20390;-62
2021/09/17 07:05:16;0.00;0.00;0.62;0.00;0.00;0.62;6.23;5.23;;;25.00;39.50;;;;;;2246123;61;20389;-66
2021/09/17 07:08:04;0.00;0.00;0.62;0.00;0.00;0.62;6.57;5.87;;;25.00;39.60;;;;;;2245980;61;20400;-64
2021/09/17 07:10:51;0.00;0.00;0.62;0.00;0.00;0.62;6.13;4.40;;;25.00;39.70;;;;;;2245489;61;20393;-60
2021/09/17 07:13:36;0.00;0.00;0.62;0.00;0.00;0.62;5.67;4.40;;;24.90;39.70;;;;;;2245979;61;20669;-63
2021/09/17 07:16:21;0.00;0.00;0.62;0.00;0.00;0.62;5.17;3.90;;;24.90;39.80;;;;;;2245777;61;20389;-65
2021/09/17 07:19:06;0.00;0.00;0.62;0.00;0.00;0.62;4.83;2.90;;;24.90;39.80;;;;;;2245901;61;20350;-64
2021/09/17 07:21:51;0.00;0.00;0.62;0.00;0.00;0.62;4.10;3.33;;;24.90;39.80;;;;;;2248397;61;20357;-64
2021/09/17 07:24:38;0.00;0.00;0.62;0.00;0.00;0.62;3.67;2.90;;;24.90;39.80;;;;;;2245393;61;20425;-66
2021/09/17 07:27:23;0.00;0.00;0.62;0.00;0.00;0.62;4.30;3.33;;;25.00;39.90;;;;;;2246061;61;20451;-66
2021/09/17 07:30:09;0.00;0.00;0.62;0.00;0.00;0.62;4.27;3.30;;;25.00;39.90;;;;;;2246210;61;20366;-63
2021/09/17 07:32:53;0.00;0.00;0.62;0.00;0.00;0.62;3.50;3.00;;;25.00;39.90;;;;;;2245359;61;20414;-67
2021/09/17 07:35:38;0.00;0.00;0.62;0.00;0.00;0.62;5.20;2.90;;;25.00;39.90;;;;;;2245998;61;20656;-66
2021/09/17 07:38:23;0.00;0.00;0.62;0.00;0.00;0.62;4.40;4.00;;;25.00;39.90;;;;;;2245806;61;20357;-66
2021/09/17 07:41:08;0.00;0.00;0.62;0.00;0.00;0.62;4.97;3.30;;;25.10;39.90;;;;;;2245910;61;20733;-63
2021/09/17 07:43:53;0.00;0.00;0.62;0.00;0.00;0.62;3.30;2.93;;;25.10;39.90;;;;;;2245995;61;20365;-67
2021/09/17 07:46:38;0.00;0.00;0.62;0.00;0.00;0.62;5.00;3.20;;;25.10;39.90;;;;;;2245444;61;20367;-63
2021/09/17 07:49:23;0.00;0.00;0.62;0.00;0.00;0.62;4.57;2.90;;;25.10;39.90;;;;;;2245775;61;20392;-62
2021/09/17 07:52:08;0.00;0.00;0.62;0.00;0.00;0.62;3.90;2.67;;;25.10;39.90;;;;;;2246092;61;20726;-67
2021/09/17 07:54:53;0.00;0.00;0.62;0.00;0.00;0.62;3.10;2.60;;;25.10;39.90;;;;;;2245073;61;20388;-65
2021/09/17 07:57:39;0.00;0.00;0.62;0.00;0.00;0.62;5.03;2.40;;;25.20;40.00;;;;;;2246084;61;20385;-62
2021/09/17 08:00:23;0.00;0.00;0.62;0.00;0.00;0.62;2.60;2.37;;;25.20;40.00;;;;;;2246140;61;20358;-65
2021/09/17 08:03:08;0.00;0.00;0.62;0.00;0.00;0.62;4.60;2.13;;;25.20;40.00;;;;;;2248389;61;20400;-66
2021/09/17 08:05:53;0.00;0.00;0.62;0.00;0.00;0.62;2.73;2.17;;;25.30;40.10;;;;;;2250079;61;20388;-66
2021/09/17 08:08:38;0.00;0.00;0.62;0.00;0.00;0.62;5.00;2.00;;;25.30;40.10;;;;;;2249413;61;20416;-63
2021/09/17 08:11:23;0.00;0.00;0.62;0.00;0.00;0.62;2.50;1.90;;;25.30;40.10;;;;;;2249771;61;20361;-64
2021/09/17 08:14:09;0.00;0.00;0.62;0.00;0.00;0.62;3.67;2.37;;;25.30;40.10;;;;;;2249892;61;20575;-64
2021/09/17 08:16:55;0.00;0.00;0.62;0.00;0.00;0.62;1.97;1.60;;;25.40;40.10;;;;;;2248976;61;20372;-64
2021/09/17 08:19:40;0.00;0.00;0.62;0.00;0.00;0.62;2.10;1.70;;;25.40;40.10;;;;;;2250089;61;20357;-64
2021/09/17 08:22:26;0.00;0.00;0.62;0.00;0.00;0.62;2.27;1.63;;;25.40;39.90;;;;;;2249939;61;20613;-65
2021/09/17 08:25:11;0.00;0.00;0.62;0.00;0.00;0.62;2.50;1.63;;;25.40;39.60;;;;;;2249227;61;20392;-66
2021/09/17 08:27:55;0.00;0.00;0.62;0.00;0.00;0.62;4.37;1.40;;;25.40;39.50;;;;;;2249990;61;20388;-65
2021/09/17 08:30:41;0.00;0.00;0.62;0.00;0.00;0.62;3.73;1.63;;;25.50;39.60;;;;;;2249025;58;20489;-65
2021/09/17 08:33:26;0.00;0.00;0.62;0.00;0.00;0.62;2.20;1.47;;;25.40;39.40;;;;;;2249692;61;20373;-69
2021/09/17 08:36:11;0.00;0.00;0.62;0.00;0.00;0.62;2.07;1.50;;;25.50;39.30;;;;;;2249955;61;20384;-65
2021/09/17 08:38:56;0.00;0.00;0.62;0.00;0.00;0.62;2.00;1.57;;;25.50;39.30;;;;;;2249023;61;20630;-62
2021/09/17 08:41:42;0.00;0.00;0.62;0.00;0.00;0.62;2.57;1.30;;;25.50;39.30;;;;;;2250032;61;20364;-64
2021/09/17 08:44:28;0.00;0.00;0.62;0.00;0.00;0.62;3.10;1.40;;;25.60;39.40;;;;;;2249206;61;20385;-65
2021/09/17 08:47:17;0.00;0.00;0.62;0.00;0.00;0.62;2.17;1.53;;;25.60;39.30;;;;;;2249154;61;20388;-64
2021/09/17 08:50:04;0.00;0.00;0.62;0.00;0.00;0.62;1.93;1.20;;;25.60;39.30;;;;;;2249919;61;20352;-68
2021/09/17 08:52:49;0.00;0.00;0.62;0.00;0.00;0.62;2.90;1.33;;;25.70;39.30;;;;;;2249128;61;20549;-64
2021/09/17 08:55:34;0.00;0.00;0.62;0.00;0.00;0.62;3.00;1.13;;;25.70;39.30;;;;;;2249743;61;20428;-68
2021/09/17 08:58:19;0.00;0.00;0.62;0.00;0.00;0.62;2.60;1.40;;;25.70;39.30;;;;;;2249667;61;20636;-63
2021/09/17 09:01:03;0.00;0.00;0.62;0.00;0.00;0.62;1.83;1.37;;;25.70;39.20;;;;;;2248473;61;20368;-67
2021/09/17 09:03:50;0.00;0.00;0.62;0.00;0.00;0.62;2.90;1.37;;;25.80;39.10;;;;;;2249763;61;20369;-63
2021/09/17 09:06:36;0.00;0.00;0.62;0.00;0.00;0.62;3.60;1.30;;;25.80;39.00;;;;;;2249337;61;20458;-62
2021/09/17 09:09:21;0.00;0.00;0.62;0.00;0.00;0.62;1.80;1.40;;;25.80;39.70;;;;;;2249028;61;20646;-65
2021/09/17 09:12:06;0.00;0.00;0.62;0.00;0.00;0.62;2.97;1.50;;;25.80;39.60;;;;;;2249948;61;20371;-66
2021/09/17 09:15:11;0.00;0.00;0.62;0.00;0.00;0.62;2.30;1.43;;;25.90;38.90;;;;;;2249219;61;20443;-67
2021/09/17 09:17:58;0.00;0.00;0.62;0.00;0.00;0.62;2.70;1.20;;;25.90;38.90;;;;;;2249826;61;20361;-68
2021/09/17 09:20:45;0.00;0.00;0.62;0.00;0.00;0.62;2.30;1.40;;;25.90;38.90;;;;;;2249832;61;20353;-65
2021/09/17 09:23:30;0.00;0.00;0.62;0.00;0.00;0.62;2.47;1.40;;;26.00;38.90;;;;;;2248871;61;20476;-65
2021/09/17 09:26:15;0.00;0.00;0.62;0.00;0.00;0.62;1.70;1.20;;;26.00;38.60;;;;;;2249745;61;20759;-67
2021/09/17 09:28:59;0.00;0.00;0.62;0.00;0.00;0.62;1.90;1.20;;;26.00;38.40;;;;;;2249011;61;20697;-64
2021/09/17 09:31:44;0.00;0.00;0.62;0.00;0.00;0.62;1.87;1.23;;;26.00;38.60;;;;;;2248762;61;20404;-66
2021/09/17 09:34:51;0.00;0.00;0.62;0.00;0.00;0.62;1.60;1.10;;;26.00;38.60;;;;;;2249545;61;20703;-67
2021/09/17 09:37:40;0.00;0.00;0.62;0.00;0.00;0.62;2.40;1.47;;;26.10;38.80;;;;;;2249381;61;20404;-64
2021/09/17 09:40:24;0.00;0.00;0.62;0.00;0.00;0.62;3.00;1.10;;;26.10;38.80;;;;;;2249649;61;20368;-67
2021/09/17 09:43:09;0.00;0.00;0.62;0.00;0.00;0.62;2.20;1.07;;;26.20;39.00;;;;;;2250037;61;20736;-67
2021/09/17 09:45:53;0.00;0.00;0.62;0.00;0.00;0.62;2.57;1.30;;;26.20;38.90;;;;;;2249594;61;20379;-63
2021/09/17 09:48:38;0.00;0.00;0.62;0.00;0.00;0.62;1.67;1.33;;;26.20;38.90;;;;;;2250381;61;20408;-62
2021/09/17 09:51:23;0.00;0.00;0.62;0.00;0.00;0.62;2.50;1.27;;;26.30;38.90;;;;;;2250540;61;20435;-63
2021/09/17 09:54:10;0.00;0.00;0.62;0.00;0.00;0.62;2.10;1.20;;;26.30;38.70;;;;;;2250124;61;20368;-65
2021/09/17 09:56:56;0.00;0.00;0.62;0.00;0.00;0.62;5.50;1.40;;;26.30;38.70;;;;;;2250300;61;20372;-64
2021/09/17 09:59:41;0.00;0.00;0.62;0.00;0.00;0.62;2.10;1.40;;;26.40;38.80;;;;;;2249875;61;20361;-68
2021/09/17 10:02:26;0.00;0.00;0.62;0.00;0.00;0.62;1.60;1.33;;;26.50;38.70;;;;;;2250179;61;20364;-66
2021/09/17 10:05:17;0.00;0.00;0.62;0.00;0.00;0.62;2.13;1.07;;;26.50;38.60;;;;;;2250318;61;20722;-66
2021/09/17 10:08:02;0.00;0.00;0.62;0.00;0.00;0.62;3.30;1.23;;;26.50;38.60;;;;;;2249655;61;20385;-67
2021/09/17 10:10:48;0.00;0.00;0.62;0.00;0.00;0.62;2.10;1.00;;;26.50;38.50;;;;;;2250305;61;20412;-68
2021/09/17 10:13:33;0.00;0.00;0.62;0.00;0.00;0.62;1.87;1.17;;;26.50;38.50;;;;;;2250385;61;20373;-67
2021/09/17 10:16:21;0.00;0.00;0.62;0.00;0.00;0.62;1.77;1.30;;;26.60;38.40;;;;;;2249971;61;20392;-67
2021/09/17 10:19:07;0.00;0.00;0.62;0.00;0.00;0.62;2.60;1.30;;;26.60;38.30;;;;;;2250382;61;20352;-68
2021/09/17 10:21:57;0.00;0.00;0.62;0.00;0.00;0.62;1.50;1.10;;;26.60;38.20;;;;;;2249819;61;20360;-66
2021/09/17 10:24:43;0.00;0.00;0.62;0.00;0.00;0.62;3.40;1.60;;;26.60;38.30;;;;;;2249851;61;20384;-66
2021/09/17 10:27:29;0.00;0.00;0.62;0.00;0.00;0.62;1.70;1.03;;;26.70;38.30;;;;;;2250426;61;20408;-67
2021/09/17 10:30:16;0.00;0.00;0.62;0.00;0.00;0.62;2.10;1.00;;;26.70;38.30;;;;;;2249723;61;20365;-64
2021/09/17 10:33:02;0.00;0.00;0.62;0.00;0.00;0.62;2.23;1.03;;;26.70;38.40;;;;;;2250038;61;20388;-65
2021/09/17 10:35:48;0.00;0.00;0.62;0.00;0.00;0.62;2.60;1.47;;;26.80;38.40;;;;;;2250304;61;20376;-65
2021/09/17 10:38:34;0.00;0.00;0.62;0.00;0.00;0.62;2.00;1.10;;;26.80;38.30;;;;;;2249998;61;20359;-65
2021/09/17 10:41:19;0.00;0.00;0.62;0.00;0.00;0.62;1.80;1.03;;;26.80;38.30;;;;;;2250431;61;20363;-64
2021/09/17 10:44:05;0.00;0.00;0.62;0.00;0.00;0.62;1.83;1.27;;;26.90;38.20;;;;;;2249846;61;20364;-64
2021/09/17 10:46:49;0.00;0.00;0.62;0.00;0.00;0.62;2.47;1.30;;;26.90;38.10;;;;;;2249723;61;20361;-68
2021/09/17 10:50:01;0.00;0.00;0.62;0.00;0.00;0.62;2.70;1.40;;;27.00;38.00;;;;;;2250285;61;20413;-67
2021/09/17 10:52:48;0.00;0.00;0.62;0.00;0.00;0.62;2.47;1.20;;;27.00;38.00;;;;;;2249403;61;20416;-68